Time;durP1;ratioP1;P1;durP2;ratioP2;P2;SDS_P1;SDS_P2;PMS_P1;PMS_P2;Temp;Humidity;BMP_temperature;BMP_pressure;BME280_temperature;BME280_humidity;BME280_pressure;Samples;Min_cycle;Max_cycle;Signal;HPM_P1;HPM_P2
2022/10/05 00:01:48;;;;;;;;;;;20.20;99.90;;;;;;4982289;28;20314;-65
2022/10/05 00:04:15;;;;;;;;;;;20.20;99.90;;;;;;4962260;28;19930;-64
2022/10/05 00:06:43;;;;;;;;;;;20.10;99.90;;;;;;4974477;28;19937;-65
2022/10/05 00:09:20;;;;;;;;;;;20.10;99.90;;;;;;4965883;28;20315;-64
2022/10/05 00:11:47;;;;;;;;;;;20.10;99.90;;;;;;4975389;28;19941;-65
2022/10/05 00:14:25;;;;;;;;;;;20.20;99.90;;;;;;4974165;28;19937;-67
2022/10/05 00:16:52;;;;;;;;;;;20.10;99.90;;;;;;4993826;28;19926;-65
2022/10/05 00:19:29;;;;;;;;;;;20.20;99.90;;;;;;4974891;28;19925;-65
2022/10/05 00:22:16;;;;;;;;;;;20.20;99.90;;;;;;4968619;28;20394;-65
2022/10/05 00:24:44;;;;;;;;;;;20.10;99.90;;;;;;4957311;28;19930;-65
2022/10/05 00:27:21;;;;;;;;;;;20.10;99.90;;;;;;4968480;28;20302;-65
2022/10/05 00:29:50;;;;;;;;;;;20.10;99.90;;;;;;4972500;28;19931;-64
2022/10/05 00:32:17;;;;;;;;;;;20.10;99.90;;;;;;4967299;28;19934;-65
2022/10/05 00:34:45;;;;;;;;;;;20.10;99.90;;;;;;4976352;28;20409;-65
2022/10/05 00:37:12;;;;;;;;;;;20.10;99.90;;;;;;4981331;28;20444;-64
2022/10/05 00:39:40;;;;;;;;;;;20.10;99.90;;;;;;4974486;28;20341;-65
2022/10/05 00:42:18;;;;;;;;;;;20.10;99.90;;;;;;4980201;28;19926;-66
2022/10/05 00:44:51;;;;;;;;;;;20.00;99.90;;;;;;4984978;28;19925;-65
2022/10/05 00:47:33;;;;;;;;;;;20.00;99.90;;;;;;4993282;28;19937;-66
2022/10/05 00:50:13;;;;;;;;;;;20.00;99.90;;;;;;4986698;28;19927;-64
2022/10/05 00:52:49;;;;;;;;;;;20.00;99.90;;;;;;4964227;28;19933;-65
2022/10/05 00:55:16;;;;;;;;;;;20.00;99.90;;;;;;4960570;28;19930;-65
2022/10/05 00:58:08;;;;;;;;;;;20.00;99.90;;;;;;4965316;28;20325;-65
2022/10/05 01:00:41;;;;;;;;;;;20.00;99.90;;;;;;4987838;28;19936;-64
2022/10/05 01:03:19;;;;;;;;;;;20.00;99.90;;;;;;4967745;28;19953;-65
2022/10/05 01:05:56;;;;;;;;;;;20.00;99.90;;;;;;4969905;28;19930;-64
2022/10/05 01:08:49;;;;;;;;;;;20.00;99.90;;;;;;4982072;28;19930;-64
2022/10/05 01:11:25;;;;;;;;;;;20.00;99.90;;;;;;4998274;28;20304;-65
2022/10/05 01:13:52;;;;;;;;;;;20.00;99.90;;;;;;4994684;28;19937;-65
2022/10/05 01:16:28;;;;;;;;;;;19.90;99.90;;;;;;4969978;28;19933;-65
2022/10/05 01:19:14;;;;;;;;;;;19.90;99.90;;;;;;4970470;28;19927;-65
2022/10/05 01:21:47;;;;;;;;;;;19.90;99.90;;;;;;4972107;28;19936;-65
2022/10/05 01:24:33;;;;;;;;;;;19.90;99.90;;;;;;4989056;28;20368;-65
2022/10/05 01:27:10;;;;;;;;;;;19.90;99.90;;;;;;4987555;28;19930;-66
2022/10/05 01:29:45;;;;;;;;;;;19.90;99.90;;;;;;4991136;28;20333;-65
2022/10/05 01:32:17;;;;;;;;;;;19.90;99.90;;;;;;4980158;28;19930;-65
2022/10/05 01:34:52;;;;;;;;;;;19.90;99.90;;;;;;4966198;28;19949;-65
2022/10/05 01:37:41;;;;;;;;;;;19.90;99.90;;;;;;4970091;28;19934;-65
2022/10/05 01:40:18;;;;;;;;;;;19.90;99.90;;;;;;4978324;28;19929;-65
2022/10/05 01:42:54;;;;;;;;;;;19.90;99.90;;;;;;4978954;28;19953;-66
2022/10/05 01:45:21;;;;;;;;;;;19.90;99.90;;;;;;4974247;28;19929;-66
2022/10/05 01:47:48;;;;;;;;;;;19.80;99.90;;;;;;4967587;28;20261;-65
2022/10/05 01:50:18;;;;;;;;;;;19.80;99.90;;;;;;4986453;28;19929;-65
2022/10/05 01:52:58;;;;;;;;;;;19.80;99.90;;;;;;4966151;28;19929;-66
2022/10/05 01:55:31;;;;;;;;;;;19.80;99.90;;;;;;4979830;28;19926;-65
2022/10/05 01:57:58;;;;;;;;;;;19.80;99.90;;;;;;4967761;28;19936;-64
2022/10/05 02:00:26;;;;;;;;;;;19.80;99.90;;;;;;4991208;28;19934;-66
2022/10/05 02:03:13;;;;;;;;;;;19.80;99.90;;;;;;4967194;28;20434;-66
2022/10/05 02:05:45;;;;;;;;;;;19.80;99.90;;;;;;4961295;28;19972;-66
2022/10/05 02:08:31;;;;;;;;;;;19.80;99.90;;;;;;4988775;28;20220;-65
2022/10/05 02:11:00;;;;;;;;;;;19.80;99.90;;;;;;4979278;28;19937;-66
2022/10/05 02:13:37;;;;;;;;;;;19.80;99.90;;;;;;4957778;28;19941;-65
2022/10/05 02:16:22;;;;;;;;;;;19.70;99.90;;;;;;4986731;28;20317;-65
2022/10/05 02:18:52;;;;;;;;;;;19.70;99.90;;;;;;4992126;28;20436;-65
2022/10/05 02:21:20;;;;;;;;;;;19.70;99.90;;;;;;4975518;28;20398;-65
2022/10/05 02:23:49;;;;;;;;;;;19.70;99.90;;;;;;4972059;28;19930;-65
2022/10/05 02:26:17;;;;;;;;;;;19.70;99.90;;;;;;4965363;28;19942;-65
2022/10/05 02:28:47;;;;;;;;;;;19.70;99.90;;;;;;4978183;28;20321;-65
2022/10/05 02:31:17;;;;;;;;;;;19.70;99.90;;;;;;4990492;28;19937;-65
2022/10/05 02:33:47;;;;;;;;;;;19.70;99.90;;;;;;4995234;28;19937;-66
2022/10/05 02:36:28;;;;;;;;;;;19.70;99.90;;;;;;4997796;28;19926;-65
2022/10/05 02:38:55;;;;;;;;;;;19.70;99.90;;;;;;4967595;28;19926;-65
2022/10/05 02:41:40;;;;;;;;;;;19.70;99.90;;;;;;4983541;28;19937;-67
2022/10/05 02:44:16;;;;;;;;;;;19.70;99.90;;;;;;4983911;28;19937;-65
2022/10/05 02:46:43;;;;;;;;;;;19.70;99.90;;;;;;4998542;28;20398;-65
2022/10/05 02:49:19;;;;;;;;;;;19.70;99.90;;;;;;4988411;28;19927;-65
2022/10/05 02:52:21;;;;;;;;;;;19.70;99.90;;;;;;4976323;28;19933;-65
2022/10/05 02:54:53;;;;;;;;;;;19.70;99.90;;;;;;4912692;29;20258;-66
2022/10/05 02:57:25;;;;;;;;;;;19.70;99.90;;;;;;4967611;28;20429;-66
2022/10/05 03:00:02;;;;;;;;;;;19.70;99.90;;;;;;4979260;28;19930;-66
2022/10/05 03:02:40;;;;;;;;;;;19.70;99.90;;;;;;4983139;28;19926;-65
2022/10/05 03:05:11;;;;;;;;;;;19.70;99.90;;;;;;5000822;28;19936;-65
2022/10/05 03:07:48;;;;;;;;;;;19.60;99.90;;;;;;4985331;28;19930;-66
2022/10/05 03:10:25;;;;;;;;;;;19.60;99.90;;;;;;4976286;28;19929;-66
2022/10/05 03:13:22;;;;;;;;;;;19.60;99.90;;;;;;4960905;28;19957;-65
2022/10/05 03:15:50;;;;;;;;;;;19.60;99.90;;;;;;4964723;28;20326;-65
2022/10/05 03:18:38;;;;;;;;;;;19.60;99.90;;;;;;4986020;28;20420;-65
2022/10/05 03:21:20;;;;;;;;;;;19.60;99.90;;;;;;4998210;28;19933;-65
2022/10/05 03:24:03;;;;;;;;;;;19.60;99.90;;;;;;4973604;28;19941;-64
2022/10/05 03:26:39;;;;;;;;;;;19.60;99.90;;;;;;4995714;28;19930;-66
2022/10/05 03:29:12;;;;;;;;;;;19.60;99.90;;;;;;4987014;28;19926;-65
2022/10/05 03:31:47;;;;;;;;;;;19.70;99.90;;;;;;4975976;28;19926;-64
2022/10/05 03:34:19;;;;;;;;;;;19.70;99.90;;;;;;4967824;28;19930;-64
2022/10/05 03:37:01;;;;;;;;;;;19.70;99.90;;;;;;4983092;28;19926;-63
2022/10/05 03:39:45;;;;;;;;;;;19.70;99.90;;;;;;4976887;28;19930;-64
2022/10/05 03:42:16;;;;;;;;;;;19.70;99.90;;;;;;4983430;28;19937;-64
2022/10/05 03:44:48;;;;;;;;;;;19.70;99.90;;;;;;4975520;28;19937;-64
2022/10/05 03:47:22;;;;;;;;;;;19.70;99.90;;;;;;5010093;28;19926;-63
2022/10/05 03:50:02;;;;;;;;;;;19.70;99.90;;;;;;4985725;28;19926;-64
2022/10/05 03:52:31;;;;;;;;;;;19.70;99.90;;;;;;5001528;28;19930;-64
2022/10/05 03:55:12;;;;;;;;;;;19.80;99.90;;;;;;5003551;28;20402;-65
2022/10/05 03:57:39;;;;;;;;;;;19.90;99.90;;;;;;4997370;28;19942;-64
2022/10/05 04:00:18;;;;;;;;;;;20.00;99.90;;;;;;4952441;28;20417;-63
2022/10/05 04:03:03;;;;;;;;;;;20.00;99.90;;;;;;4973135;28;19942;-66
2022/10/05 04:05:51;;;;;;;;;;;20.20;99.90;;;;;;4965836;28;19933;-64
2022/10/05 04:08:21;;;;;;;;;;;20.20;99.90;;;;;;4964679;28;20449;-63
2022/10/05 04:10:50;;;;;;;;;;;20.30;99.90;;;;;;4974095;28;19936;-66
2022/10/05 04:13:33;;;;;;;;;;;20.40;99.90;;;;;;4970558;28;19953;-65
2022/10/05 04:16:14;;;;;;;;;;;20.30;99.90;;;;;;4976695;28;19938;-66
2022/10/05 04:18:53;;;;;;;;;;;20.40;99.90;;;;;;4979586;28;19930;-65
2022/10/05 04:21:29;;;;;;;;;;;20.40;99.90;;;;;;4955104;28;19930;-66
2022/10/05 04:24:17;;;;;;;;;;;20.30;99.90;;;;;;4988472;28;19930;-66
2022/10/05 04:26:51;;;;;;;;;;;20.40;99.90;;;;;;4970470;28;19937;-66
2022/10/05 04:29:28;;;;;;;;;;;20.40;99.90;;;;;;4983442;28;19937;-65
2022/10/05 04:32:08;;;;;;;;;;;20.40;99.90;;;;;;4986336;28;19934;-65
2022/10/05 04:34:46;;;;;;;;;;;20.40;99.90;;;;;;4981941;28;20390;-63
2022/10/05 04:37:18;;;;;;;;;;;20.40;99.90;;;;;;4990677;28;19937;-66
2022/10/05 04:39:54;;;;;;;;;;;20.40;99.90;;;;;;4984651;28;19931;-66
2022/10/05 04:42:27;;;;;;;;;;;20.40;99.90;;;;;;4979945;28;19930;-66
2022/10/05 04:45:07;;;;;;;;;;;20.40;99.90;;;;;;4964273;28;19931;-66
2022/10/05 04:47:44;;;;;;;;;;;20.40;99.90;;;;;;4972698;28;19930;-66
2022/10/05 04:50:20;;;;;;;;;;;20.40;99.90;;;;;;4991313;28;19926;-65
2022/10/05 04:53:15;;;;;;;;;;;20.40;99.90;;;;;;4976632;28;19926;-64
2022/10/05 04:55:51;;;;;;;;;;;20.40;99.90;;;;;;4956966;28;19937;-65
2022/10/05 04:58:18;;;;;;;;;;;20.30;99.90;;;;;;4971490;28;20425;-65
2022/10/05 05:00:45;;;;;;;;;;;20.30;99.90;;;;;;4987875;28;20310;-65
2022/10/05 05:03:31;;;;;;;;;;;20.30;99.90;;;;;;4968528;28;19926;-67
2022/10/05 05:06:16;;;;;;;;;;;20.30;99.90;;;;;;4988610;28;19941;-66
2022/10/05 05:08:57;;;;;;;;;;;20.40;99.90;;;;;;4983857;28;19941;-65
2022/10/05 05:11:44;;;;;;;;;;;20.50;99.90;;;;;;4974141;28;19930;-64
2022/10/05 05:14:29;;;;;;;;;;;20.50;99.90;;;;;;4976595;28;19933;-64
2022/10/05 05:17:25;;;;;;;;;;;20.50;99.90;;;;;;4974226;28;19926;-65
2022/10/05 05:19:56;;;;;;;;;;;20.50;99.90;;;;;;4956814;28;19929;-65
2022/10/05 05:22:42;;;;;;;;;;;20.60;99.90;;;;;;4981294;28;19930;-65
2022/10/05 05:25:28;;;;;;;;;;;20.60;99.90;;;;;;4965011;28;19938;-63
2022/10/05 05:27:56;;;;;;;;;;;20.70;99.90;;;;;;4977353;28;19934;-65
2022/10/05 05:30:32;;;;;;;;;;;20.70;99.90;;;;;;4984465;28;20386;-65
2022/10/05 05:33:21;;;;;;;;;;;20.70;99.90;;;;;;4987372;28;19938;-65
2022/10/05 05:36:03;;;;;;;;;;;20.70;99.90;;;;;;4990102;28;19929;-65
2022/10/05 05:38:33;;;;;;;;;;;20.70;99.90;;;;;;4969453;28;19937;-66
2022/10/05 05:41:08;;;;;;;;;;;20.70;99.90;;;;;;4959007;28;19927;-65
2022/10/05 05:43:56;;;;;;;;;;;20.70;99.90;;;;;;4987326;28;20379;-66
2022/10/05 05:46:23;;;;;;;;;;;20.60;99.90;;;;;;4965058;28;19930;-64
2022/10/05 05:49:20;;;;;;;;;;;20.60;99.90;;;;;;4989146;28;19933;-67
2022/10/05 05:51:50;;;;;;;;;;;20.60;99.90;;;;;;4973406;28;19957;-67
2022/10/05 05:54:21;;;;;;;;;;;20.60;99.90;;;;;;4964714;28;19935;-65
2022/10/05 05:56:51;;;;;;;;;;;20.60;99.90;;;;;;4964961;28;20402;-69
2022/10/05 05:59:31;;;;;;;;;;;20.60;99.90;;;;;;4973390;28;19934;-66
2022/10/05 06:02:04;;;;;;;;;;;20.50;99.90;;;;;;4985226;28;19934;-64
2022/10/05 06:04:35;;;;;;;;;;;20.50;99.90;;;;;;4984758;28;19926;-64
2022/10/05 06:07:03;;;;;;;;;;;20.50;99.90;;;;;;4996121;28;20400;-65
2022/10/05 06:09:32;;;;;;;;;;;20.50;99.90;;;;;;4971196;28;19976;-69
2022/10/05 06:12:22;;;;;;;;;;;20.50;99.90;;;;;;4966658;28;19934;-66
2022/10/05 06:15:08;;;;;;;;;;;20.50;99.90;;;;;;4968205;28;19945;-67
2022/10/05 06:17:44;;;;;;;;;;;20.50;99.90;;;;;;4968664;28;20357;-67
2022/10/05 06:20:26;;;;;;;;;;;20.40;99.90;;;;;;4994721;28;19931;-65
2022/10/05 06:22:57;;;;;;;;;;;20.40;99.90;;;;;;4965116;28;19930;-66
2022/10/05 06:25:30;;;;;;;;;;;20.40;99.90;;;;;;4987535;28;19941;-67
2022/10/05 06:28:14;;;;;;;;;;;20.40;99.90;;;;;;4975196;28;19953;-67
2022/10/05 06:30:59;;;;;;;;;;;20.40;99.90;;;;;;4971414;28;20417;-63
2022/10/05 06:33:52;;;;;;;;;;;20.40;99.90;;;;;;4965028;28;19934;-64
2022/10/05 06:36:43;;;;;;;;;;;20.40;99.90;;;;;;4947733;28;20287;-64
2022/10/05 06:39:35;;;;;;;;;;;20.40;99.90;;;;;;4988651;28;19925;-65
2022/10/05 06:42:08;;;;;;;;;;;20.40;99.90;;;;;;4969775;28;20769;-64
2022/10/05 06:45:00;;;;;;;;;;;20.30;99.90;;;;;;4979892;28;19941;-65
2022/10/05 06:47:41;;;;;;;;;;;20.30;99.90;;;;;;4982877;28;19930;-63
2022/10/05 06:50:41;;;;;;;;;;;20.20;99.90;;;;;;4984460;28;19926;-64
2022/10/05 06:53:34;;;;;;;;;;;20.30;99.90;;;;;;4992204;28;19930;-66
2022/10/05 06:56:06;;;;;;;;;;;20.30;99.90;;;;;;4977905;28;19949;-66
2022/10/05 06:58:53;;;;;;;;;;;20.30;99.90;;;;;;4966528;28;20421;-66
2022/10/05 07:01:47;;;;;;;;;;;20.20;99.90;;;;;;4972387;28;19934;-65
2022/10/05 07:04:15;;;;;;;;;;;20.20;99.90;;;;;;4986138;28;19930;-66
2022/10/05 07:06:46;;;;;;;;;;;20.20;99.90;;;;;;4993085;28;19930;-65
2022/10/05 07:09:19;;;;;;;;;;;20.20;99.90;;;;;;4968387;28;20322;-66
2022/10/05 07:12:00;;;;;;;;;;;20.20;99.90;;;;;;4977063;28;21170;-66
2022/10/05 07:14:57;;;;;;;;;;;20.20;99.90;;;;;;4986584;28;19929;-65
2022/10/05 07:17:28;;;;;;;;;;;20.10;99.90;;;;;;4964401;28;19941;-66
2022/10/05 07:20:09;;;;;;;;;;;20.00;99.90;;;;;;4966294;28;19933;-66
2022/10/05 07:22:43;;;;;;;;;;;20.00;99.90;;;;;;4979961;28;20301;-68
2022/10/05 07:25:14;;;;;;;;;;;20.00;99.90;;;;;;4976901;28;19934;-72
2022/10/05 07:27:49;;;;;;;;;;;20.00;99.90;;;;;;4976788;28;20213;-70
2022/10/05 07:30:18;;;;;;;;;;;20.10;99.90;;;;;;4971789;28;19941;-65
2022/10/05 07:32:53;;;;;;;;;;;20.10;99.90;;;;;;4965159;28;20307;-65
2022/10/05 07:38:25;;;;;;;;;;;20.10;99.90;;;;;;4963569;28;19930;-67
2022/10/05 07:41:02;;;;;;;;;;;20.20;99.90;;;;;;4989724;28;19984;-65
2022/10/05 07:43:35;;;;;;;;;;;20.10;99.90;;;;;;4980913;28;19940;-65
2022/10/05 07:46:27;;;;;;;;;;;20.20;99.90;;;;;;4972452;28;19930;-67
2022/10/05 07:49:04;;;;;;;;;;;20.20;99.90;;;;;;4964192;28;19926;-67
2022/10/05 07:51:44;;;;;;;;;;;20.20;99.90;;;;;;4962683;28;19926;-66
2022/10/05 07:54:19;;;;;;;;;;;20.20;99.90;;;;;;4980519;28;19930;-64
2022/10/05 07:57:08;;;;;;;;;;;20.10;99.90;;;;;;4967147;28;19938;-67
2022/10/05 07:59:38;;;;;;;;;;;20.10;99.90;;;;;;4956610;28;19930;-65
2022/10/05 08:02:13;;;;;;;;;;;20.10;99.90;;;;;;4981119;28;19930;-65
2022/10/05 08:04:50;;;;;;;;;;;20.10;99.90;;;;;;4975340;28;20326;-65
2022/10/05 08:07:17;;;;;;;;;;;20.10;99.90;;;;;;4963491;28;20025;-65
2022/10/05 08:09:48;;;;;;;;;;;20.10;99.90;;;;;;4966838;28;19964;-65
2022/10/05 08:12:38;;;;;;;;;;;20.10;99.90;;;;;;4964925;28;20404;-66
2022/10/05 08:15:16;;;;;;;;;;;20.10;99.90;;;;;;4968325;28;20305;-65
2022/10/05 08:17:49;;;;;;;;;;;20.20;99.90;;;;;;4972495;28;19937;-65
2022/10/05 08:20:28;;;;;;;;;;;20.30;99.90;;;;;;4965834;28;19933;-64
2022/10/05 08:22:59;;;;;;;;;;;20.30;99.90;;;;;;4966110;28;19930;-65
2022/10/05 08:25:39;;;;;;;;;;;20.40;99.90;;;;;;4965938;28;20002;-65
2022/10/05 08:28:19;;;;;;;;;;;20.40;99.90;;;;;;4970248;28;19937;-64
2022/10/05 08:30:52;;;;;;;;;;;20.50;99.90;;;;;;4973161;28;19926;-65
2022/10/05 08:33:20;;;;;;;;;;;20.60;99.90;;;;;;4986020;28;19934;-65
2022/10/05 08:36:07;;;;;;;;;;;20.70;99.90;;;;;;4975278;28;19926;-64
2022/10/05 08:38:35;;;;;;;;;;;20.70;99.90;;;;;;4972181;28;19926;-65
2022/10/05 08:41:22;;;;;;;;;;;20.70;99.90;;;;;;4970083;28;19954;-66
2022/10/05 08:44:10;;;;;;;;;;;20.80;99.90;;;;;;4968095;28;19930;-66
2022/10/05 08:47:01;;;;;;;;;;;20.80;99.90;;;;;;4991459;28;19926;-65
2022/10/05 08:49:31;;;;;;;;;;;20.80;99.90;;;;;;4978052;28;19934;-67
2022/10/05 08:52:07;;;;;;;;;;;20.80;99.90;;;;;;4982575;28;19938;-65
2022/10/05 08:54:44;;;;;;;;;;;20.80;99.90;;;;;;4963786;28;19926;-66
2022/10/05 08:57:27;;;;;;;;;;;20.70;99.90;;;;;;4974137;28;19933;-65
2022/10/05 09:00:06;;;;;;;;;;;20.70;99.90;;;;;;4977001;28;20433;-65
2022/10/05 09:02:39;;;;;;;;;;;20.70;99.90;;;;;;4967668;28;19930;-65
2022/10/05 09:05:18;;;;;;;;;;;20.70;99.90;;;;;;4967857;28;19937;-65
2022/10/05 09:07:45;;;;;;;;;;;20.70;99.90;;;;;;4978726;28;19933;-65
2022/10/05 09:10:15;;;;;;;;;;;20.60;99.90;;;;;;4974746;28;20350;-67
2022/10/05 09:13:01;;;;;;;;;;;20.70;99.90;;;;;;4965475;28;19925;-64
2022/10/05 09:15:33;;;;;;;;;;;20.60;99.90;;;;;;4972188;28;20321;-64
2022/10/05 09:18:13;;;;;;;;;;;20.60;99.90;;;;;;4982860;28;19926;-66
2022/10/05 09:20:46;;;;;;;;;;;20.60;99.90;;;;;;4985848;28;19941;-66
2022/10/05 09:23:31;;;;;;;;;;;20.60;99.90;;;;;;4966149;28;19930;-66
2022/10/05 09:26:05;;;;;;;;;;;20.50;99.90;;;;;;4977119;28;20300;-66
2022/10/05 09:28:35;;;;;;;;;;;20.50;99.90;;;;;;4982764;28;19930;-64
2022/10/05 09:31:11;;;;;;;;;;;20.50;99.90;;;;;;4975704;28;19945;-66
2022/10/05 09:33:50;;;;;;;;;;;20.50;99.90;;;;;;4975957;28;20321;-66
2022/10/05 09:36:24;;;;;;;;;;;20.50;99.90;;;;;;4982652;28;20407;-66
2022/10/05 09:39:12;;;;;;;;;;;20.50;99.90;;;;;;4975576;28;20394;-65
2022/10/05 09:41:53;;;;;;;;;;;20.50;99.90;;;;;;4968363;28;19930;-65
2022/10/05 09:44:39;;;;;;;;;;;20.60;99.90;;;;;;4980734;28;20290;-65
2022/10/05 09:47:12;;;;;;;;;;;20.60;99.90;;;;;;4965737;28;19930;-66
2022/10/05 09:49:49;;;;;;;;;;;20.50;99.90;;;;;;4959733;28;19937;-65
2022/10/05 09:52:35;;;;;;;;;;;20.50;99.90;;;;;;4972330;28;19925;-66
2022/10/05 09:55:13;;;;;;;;;;;20.50;99.90;;;;;;4968140;28;19969;-66
2022/10/05 09:57:43;;;;;;;;;;;20.50;99.90;;;;;;4983802;28;19933;-64
2022/10/05 10:00:21;;;;;;;;;;;20.50;99.90;;;;;;4989991;28;19941;-65
2022/10/05 10:02:48;;;;;;;;;;;20.50;99.90;;;;;;4974949;28;20437;-66
2022/10/05 10:05:30;;;;;;;;;;;20.50;99.90;;;;;;4976314;28;19929;-65
2022/10/05 10:08:03;;;;;;;;;;;20.50;99.90;;;;;;4972080;28;19930;-65
2022/10/05 10:10:33;;;;;;;;;;;20.50;99.90;;;;;;4978512;28;19930;-65
2022/10/05 10:13:19;;;;;;;;;;;20.40;99.90;;;;;;4988866;28;19930;-66
2022/10/05 10:16:01;;;;;;;;;;;20.40;99.90;;;;;;4981205;28;20295;-66
2022/10/05 10:18:44;;;;;;;;;;;20.40;99.90;;;;;;4986590;28;19930;-65
2022/10/05 10:21:14;;;;;;;;;;;20.40;99.90;;;;;;4969501;28;19937;-65
2022/10/05 10:23:57;;;;;;;;;;;20.40;99.90;;;;;;4979341;28;20409;-63
2022/10/05 10:26:44;;;;;;;;;;;20.40;99.90;;;;;;4968911;28;20424;-65
2022/10/05 10:29:27;;;;;;;;;;;20.40;99.90;;;;;;4968098;28;19937;-66
2022/10/05 10:32:00;;;;;;;;;;;20.40;99.90;;;;;;4960196;28;19930;-64
2022/10/05 10:34:33;;;;;;;;;;;20.30;99.90;;;;;;4970257;28;20930;-65
2022/10/05 10:37:27;;;;;;;;;;;20.20;99.90;;;;;;4986175;28;20420;-65
2022/10/05 10:40:12;;;;;;;;;;;20.10;99.90;;;;;;4964707;28;19937;-65
2022/10/05 10:42:43;;;;;;;;;;;20.10;99.90;;;;;;4966307;28;19934;-65
2022/10/05 10:45:21;;;;;;;;;;;20.00;99.90;;;;;;4972520;28;19926;-65
2022/10/05 10:48:10;;;;;;;;;;;20.00;99.90;;;;;;4972411;28;19941;-65
2022/10/05 10:50:43;;;;;;;;;;;20.10;99.90;;;;;;4973886;28;19930;-66
2022/10/05 10:53:27;;;;;;;;;;;20.20;99.90;;;;;;4978878;28;19953;-65
2022/10/05 10:56:12;;;;;;;;;;;20.20;99.90;;;;;;4974233;28;19930;-66
2022/10/05 10:58:55;;;;;;;;;;;20.20;99.90;;;;;;4977437;28;19926;-65
2022/10/05 11:01:28;;;;;;;;;;;20.20;99.90;;;;;;4974807;28;19941;-64
2022/10/05 11:03:58;;;;;;;;;;;20.20;99.90;;;;;;4971294;28;19926;-65
2022/10/05 11:06:44;;;;;;;;;;;20.20;99.90;;;;;;4976359;28;20402;-65
2022/10/05 11:09:17;;;;;;;;;;;20.30;99.90;;;;;;4986626;28;19926;-65
2022/10/05 11:12:03;;;;;;;;;;;20.30;99.90;;;;;;4985609;28;19936;-66
2022/10/05 11:14:46;;;;;;;;;;;20.30;99.90;;;;;;4968552;28;19929;-67
2022/10/05 11:17:32;;;;;;;;;;;20.30;99.90;;;;;;4967626;28;19934;-66
2022/10/05 11:20:14;;;;;;;;;;;20.30;99.90;;;;;;4976797;28;19934;-65
2022/10/05 11:22:50;;;;;;;;;;;20.30;99.90;;;;;;4977945;28;19945;-66
2022/10/05 11:25:36;;;;;;;;;;;20.40;99.90;;;;;;4977417;28;19957;-65
2022/10/05 11:28:34;;;;;;;;;;;20.40;99.90;;;;;;4981466;28;19938;-67
2022/10/05 11:31:11;;;;;;;;;;;20.40;99.90;;;;;;4967486;28;19926;-66
2022/10/05 11:33:41;;;;;;;;;;;20.40;99.90;;;;;;4968029;28;19930;-66
2022/10/05 11:36:24;;;;;;;;;;;20.40;99.90;;;;;;4991738;28;19936;-66
2022/10/05 11:39:17;;;;;;;;;;;20.30;99.90;;;;;;4969573;28;19925;-66
2022/10/05 11:41:44;;;;;;;;;;;20.30;99.90;;;;;;4962448;28;19937;-65
2022/10/05 11:44:11;;;;;;;;;;;20.30;99.90;;;;;;4987675;28;19936;-66
2022/10/05 11:46:38;;;;;;;;;;;20.30;99.90;;;;;;4987186;28;19929;-65
2022/10/05 11:49:24;;;;;;;;;;;20.30;99.90;;;;;;4976206;28;19930;-65
2022/10/05 11:52:05;;;;;;;;;;;20.30;99.90;;;;;;4974107;28;19929;-66
2022/10/05 11:54:32;;;;;;;;;;;20.20;99.90;;;;;;4982726;28;19935;-65
2022/10/05 11:57:24;;;;;;;;;;;20.30;99.90;;;;;;4983164;28;19931;-65
2022/10/05 11:59:55;;;;;;;;;;;20.30;99.90;;;;;;4977868;28;19926;-64
2022/10/05 12:02:40;;;;;;;;;;;20.30;99.90;;;;;;4970498;28;19925;-67
2022/10/05 12:05:22;;;;;;;;;;;20.30;99.90;;;;;;4979968;28;19926;-67
2022/10/05 12:07:59;;;;;;;;;;;20.30;99.90;;;;;;4974637;28;19926;-65
2022/10/05 12:10:34;;;;;;;;;;;20.30;99.90;;;;;;4970305;28;19933;-65
2022/10/05 12:13:04;;;;;;;;;;;20.20;99.90;;;;;;4969022;28;19930;-65
2022/10/05 12:15:40;;;;;;;;;;;20.30;99.90;;;;;;4984617;28;19933;-66
2022/10/05 12:18:16;;;;;;;;;;;20.30;99.90;;;;;;4975153;28;19926;-66
2022/10/05 12:21:13;;;;;;;;;;;20.30;99.90;;;;;;4965076;28;20315;-66
2022/10/05 12:23:55;;;;;;;;;;;20.30;99.90;;;;;;4968731;28;19925;-65
2022/10/05 12:26:26;;;;;;;;;;;20.30;99.90;;;;;;4962188;28;19946;-65
2022/10/05 12:28:56;;;;;;;;;;;20.30;99.90;;;;;;4977284;28;19938;-66
2022/10/05 12:31:29;;;;;;;;;;;20.30;99.90;;;;;;4979811;28;19944;-64
2022/10/05 12:34:07;;;;;;;;;;;20.30;99.90;;;;;;4962412;28;19926;-65
2022/10/05 12:36:34;;;;;;;;;;;20.30;99.90;;;;;;4969453;28;20535;-65
2022/10/05 12:39:27;;;;;;;;;;;20.30;99.90;;;;;;4983890;28;19930;-65
2022/10/05 12:41:54;;;;;;;;;;;20.30;99.90;;;;;;4993705;28;19926;-65
2022/10/05 12:44:34;;;;;;;;;;;20.30;99.90;;;;;;4977020;28;19926;-65
2022/10/05 12:47:13;;;;;;;;;;;20.30;99.90;;;;;;4988295;28;20313;-65
2022/10/05 12:49:51;;;;;;;;;;;20.30;99.90;;;;;;4967447;28;19926;-67
2022/10/05 12:52:27;;;;;;;;;;;20.40;99.90;;;;;;4971462;28;19934;-66
2022/10/05 12:55:25;;;;;;;;;;;20.40;99.90;;;;;;4974942;28;19949;-66
2022/10/05 12:57:59;;;;;;;;;;;20.40;99.90;;;;;;4967619;28;20405;-65
2022/10/05 13:00:28;;;;;;;;;;;20.40;99.90;;;;;;4966084;28;19969;-65
2022/10/05 13:02:58;;;;;;;;;;;20.40;99.90;;;;;;4970195;28;19930;-65
2022/10/05 13:05:37;;;;;;;;;;;20.40;99.90;;;;;;4971721;28;19926;-65
2022/10/05 13:08:12;;;;;;;;;;;20.50;99.90;;;;;;4966589;28;19926;-66
2022/10/05 13:10:45;;;;;;;;;;;20.40;99.90;;;;;;4966309;28;19933;-65
2022/10/05 13:13:19;;;;;;;;;;;20.50;99.90;;;;;;4978327;28;19929;-66
2022/10/05 13:15:46;;;;;;;;;;;20.50;99.90;;;;;;4979949;28;20398;-65
2022/10/05 13:18:27;;;;;;;;;;;20.50;99.90;;;;;;4962797;28;19930;-65
2022/10/05 13:21:01;;;;;;;;;;;20.50;99.90;;;;;;4963914;28;19926;-67
2022/10/05 13:23:40;;;;;;;;;;;20.50;99.90;;;;;;4974586;28;20386;-65
2022/10/05 13:26:13;;;;;;;;;;;20.60;99.90;;;;;;4971066;28;20310;-64
2022/10/05 13:28:41;;;;;;;;;;;20.60;99.90;;;;;;4986125;28;20332;-64
2022/10/05 13:31:13;;;;;;;;;;;20.60;99.90;;;;;;4997703;28;19930;-65
2022/10/05 13:33:57;;;;;;;;;;;20.60;99.90;;;;;;4976373;28;20405;-66
2022/10/05 13:36:47;;;;;;;;;;;20.70;99.90;;;;;;4977717;28;19934;-65
2022/10/05 13:39:19;;;;;;;;;;;20.70;99.90;;;;;;4993874;28;20406;-66
2022/10/05 13:41:47;;;;;;;;;;;20.70;99.90;;;;;;4983365;28;19926;-68
2022/10/05 13:44:24;;;;;;;;;;;20.70;99.90;;;;;;4988756;28;19930;-67
2022/10/05 13:47:15;;;;;;;;;;;20.70;99.90;;;;;;4980725;28;19930;-66
2022/10/05 13:49:50;;;;;;;;;;;20.60;99.90;;;;;;4974175;28;19926;-65
2022/10/05 13:52:26;;;;;;;;;;;20.60;99.90;;;;;;4976109;28;19926;-66
2022/10/05 13:54:56;;;;;;;;;;;20.60;99.90;;;;;;4986682;28;19941;-65
2022/10/05 13:57:33;;;;;;;;;;;20.50;99.90;;;;;;4973969;28;19945;-66
2022/10/05 14:00:12;;;;;;;;;;;20.50;99.90;;;;;;4975577;28;19937;-65
2022/10/05 14:02:40;;;;;;;;;;;20.50;99.90;;;;;;4969667;28;19936;-65
2022/10/05 14:05:15;;;;;;;;;;;20.50;99.90;;;;;;4979607;28;19937;-66
2022/10/05 14:07:50;;;;;;;;;;;20.50;99.90;;;;;;4982921;28;19942;-65
2022/10/05 14:10:37;;;;;;;;;;;20.50;99.90;;;;;;4988499;28;20311;-64
2022/10/05 14:13:16;;;;;;;;;;;20.50;99.90;;;;;;4979248;28;20314;-65
2022/10/05 14:15:54;;;;;;;;;;;20.50;99.90;;;;;;4973153;28;19937;-66
2022/10/05 14:18:26;;;;;;;;;;;20.50;99.90;;;;;;4977478;28;19930;-67
2022/10/05 14:20:57;;;;;;;;;;;20.50;99.90;;;;;;4963550;28;19940;-66
2022/10/05 14:23:25;;;;;;;;;;;20.40;99.90;;;;;;4982950;28;19933;-66
2022/10/05 14:25:53;;;;;;;;;;;20.40;99.90;;;;;;4973878;28;19930;-66
2022/10/05 14:28:29;;;;;;;;;;;20.40;99.90;;;;;;4978107;28;19933;-65
2022/10/05 14:31:00;;;;;;;;;;;20.40;99.90;;;;;;4971860;28;19933;-67
2022/10/05 14:33:29;;;;;;;;;;;20.40;99.90;;;;;;4981564;28;19941;-65
2022/10/05 14:35:57;;;;;;;;;;;20.40;99.90;;;;;;4977378;28;19933;-65
2022/10/05 14:38:27;;;;;;;;;;;20.40;99.90;;;;;;4959644;28;19942;-65
2022/10/05 14:41:06;;;;;;;;;;;20.40;99.90;;;;;;4977594;28;19949;-68
2022/10/05 14:43:34;;;;;;;;;;;20.40;99.90;;;;;;4972350;28;19934;-66
2022/10/05 14:46:12;;;;;;;;;;;20.40;99.90;;;;;;4976142;28;20471;-66
2022/10/05 14:48:41;;;;;;;;;;;20.40;99.90;;;;;;5017065;23;19910;-67
2022/10/05 14:51:09;;;;;;;;;;;20.40;99.90;;;;;;5027290;28;19929;-67
2022/10/05 14:53:44;;;;;;;;;;;20.40;99.90;;;;;;5026853;28;19929;-65
2022/10/05 14:56:17;;;;;;;;;;;20.40;99.90;;;;;;5028388;28;19929;-64
2022/10/05 14:58:44;;;;;;;;;;;20.40;99.90;;;;;;5030195;28;19996;-66
2022/10/05 15:01:17;;;;;;;;;;;20.40;99.90;;;;;;5014893;28;19936;-66
2022/10/05 15:04:03;;;;;;;;;;;20.40;99.90;;;;;;5007660;28;20300;-66
2022/10/05 15:06:57;;;;;;;;;;;20.40;99.90;;;;;;5017200;28;19925;-67
2022/10/05 15:09:31;;;;;;;;;;;20.40;99.90;;;;;;4998210;28;20312;-67
2022/10/05 15:12:00;;;;;;;;;;;20.60;99.90;;;;;;5022035;28;19929;-66
2022/10/05 15:14:35;;;;;;;;;;;20.80;99.90;;;;;;5023298;28;19926;-66
2022/10/05 15:17:11;;;;;;;;;;;21.00;99.90;;;;;;5016013;28;19952;-65